createdAt,value
2023-04-17T00:02:05.064Z,9.33
2023-04-17T00:04:33.976Z,9.63
2023-04-17T00:07:03.707Z,9.93
2023-04-17T00:09:34.113Z,9.83
2023-04-17T00:12:04.173Z,9.43
2023-04-17T00:14:32.933Z,10.60
2023-04-17T00:17:01.435Z,10.33
2023-04-17T00:19:29.999Z,9.43
2023-04-17T00:21:58.809Z,10.67
2023-04-17T00:24:27.512Z,11.30
2023-04-17T00:26:58.537Z,11.27
2023-04-17T00:29:27.441Z,12.00
2023-04-17T00:31:56.199Z,10.43
2023-04-17T00:34:24.915Z,11.40
2023-04-17T00:36:53.619Z,11.07
2023-04-17T00:39:22.208Z,10.77
2023-04-17T00:41:50.690Z,10.43
2023-04-17T00:44:20.851Z,11.13
2023-04-17T00:46:49.624Z,11.80
2023-04-17T00:49:18.625Z,13.27
2023-04-17T00:51:47.517Z,14.33
2023-04-17T00:54:16.513Z,14.30
2023-04-17T00:56:45.913Z,17.07
2023-04-17T00:59:18.609Z,17.10
2023-04-17T01:01:48.723Z,16.30
2023-04-17T01:04:17.589Z,16.60
2023-04-17T01:06:46.309Z,16.70
2023-04-17T01:09:15.714Z,15.93
2023-04-17T01:11:44.244Z,15.90
2023-04-17T01:14:12.910Z,16.17
2023-04-17T01:16:42.352Z,15.40
2023-04-17T01:19:14.762Z,15.13
2023-04-17T01:21:43.556Z,14.47
2023-04-17T01:24:13.510Z,16.43
2023-04-17T01:26:42.305Z,15.70
2023-04-17T01:29:11.128Z,15.87
2023-04-17T01:31:39.859Z,17.47
2023-04-17T01:34:08.433Z,15.47
2023-04-17T01:36:37.232Z,15.43
2023-04-17T01:39:05.824Z,16.23
2023-04-17T01:41:36.762Z,15.30
2023-04-17T01:44:08.481Z,15.17
2023-04-17T01:46:37.458Z,14.70
2023-04-17T01:49:06.322Z,13.97
2023-04-17T01:51:34.909Z,14.67
2023-04-17T01:54:03.501Z,15.57
2023-04-17T01:56:32.417Z,15.53
2023-04-17T01:59:02.632Z,15.33
2023-04-17T02:01:31.263Z,15.80
2023-04-17T02:04:00.133Z,16.77
2023-04-17T02:06:29.114Z,23.37
2023-04-17T02:08:57.598Z,19.30
2023-04-17T02:11:29.051Z,16.73
2023-04-17T02:13:57.571Z,16.20
2023-04-17T02:16:29.014Z,15.93
2023-04-17T02:18:58.003Z,15.17
2023-04-17T02:21:27.207Z,13.43
2023-04-17T02:23:57.840Z,15.60
2023-04-17T02:26:26.624Z,14.73
2023-04-17T02:28:55.444Z,16.33
2023-04-17T02:31:24.371Z,17.70
2023-04-17T02:33:54.654Z,17.17
2023-04-17T02:36:23.315Z,18.43
2023-04-17T02:38:51.886Z,18.47
2023-04-17T02:41:20.839Z,17.50
2023-04-17T02:43:49.406Z,18.73
2023-04-17T02:46:18.053Z,18.77
2023-04-17T02:48:46.609Z,17.30
2023-04-17T02:51:16.629Z,17.67
2023-04-17T02:53:45.205Z,16.73
2023-04-17T02:56:13.843Z,17.60
2023-04-17T02:58:44.751Z,16.33
2023-04-17T03:01:13.493Z,16.50
2023-04-17T03:03:43.154Z,16.20
2023-04-17T03:06:12.052Z,16.33
2023-04-17T03:08:41.995Z,15.53
2023-04-17T03:11:10.765Z,15.50
2023-04-17T03:13:39.454Z,15.93
2023-04-17T03:16:08.709Z,17.93
2023-04-17T03:18:40.712Z,16.77
2023-04-17T03:21:09.534Z,15.93
2023-04-17T03:23:38.097Z,16.93
2023-04-17T03:26:07.996Z,16.57
2023-04-17T03:28:36.501Z,17.67
2023-04-17T03:31:05.087Z,18.93
2023-04-17T03:33:33.807Z,19.83
2023-04-17T03:36:02.336Z,20.13
2023-04-17T03:38:30.863Z,16.83
2023-04-17T03:40:59.421Z,17.87
2023-04-17T03:43:29.599Z,17.93
2023-04-17T03:45:58.146Z,17.43
2023-04-17T03:48:26.739Z,18.03
2023-04-17T03:50:55.272Z,18.60
2023-04-17T03:53:23.726Z,17.87
2023-04-17T03:55:52.167Z,19.33
2023-04-17T03:58:20.707Z,18.07
2023-04-17T04:00:55.595Z,18.17
2023-04-17T04:03:24.311Z,18.40
2023-04-17T04:05:53.181Z,19.00
2023-04-17T04:08:21.692Z,18.37
2023-04-17T04:10:50.308Z,18.87
2023-04-17T04:13:18.884Z,19.13
2023-04-17T04:15:47.792Z,19.17
2023-04-17T04:18:17.811Z,19.30
2023-04-17T04:20:46.558Z,21.17
2023-04-17T04:23:16.962Z,21.13
2023-04-17T04:25:45.473Z,20.87
2023-04-17T04:28:14.744Z,20.63
2023-04-17T04:30:51.048Z,20.73
2023-04-17T04:33:21.822Z,20.50
2023-04-17T04:35:51.595Z,19.67
2023-04-17T04:38:20.327Z,20.03
2023-04-17T04:40:50.319Z,21.30
2023-04-17T04:43:21.680Z,21.20
2023-04-17T04:45:50.857Z,21.33
2023-04-17T04:48:20.837Z,21.53
2023-04-17T04:50:49.417Z,20.37
2023-04-17T04:53:17.972Z,19.97
2023-04-17T04:55:46.962Z,19.20
2023-04-17T04:58:15.558Z,20.43
2023-04-17T05:00:44.587Z,19.83
2023-04-17T05:03:13.441Z,19.23
2023-04-17T05:05:49.843Z,18.93
2023-04-17T05:08:18.449Z,19.47
2023-04-17T05:10:47.433Z,20.17
2023-04-17T05:13:15.932Z,20.40
2023-04-17T05:15:44.582Z,20.87
2023-04-17T05:18:13.092Z,22.20
2023-04-17T05:20:41.579Z,23.83
2023-04-17T05:23:11.514Z,22.63
2023-04-17T05:25:39.968Z,24.57
2023-04-17T05:28:08.640Z,23.70
2023-04-17T05:30:37.270Z,24.93
2023-04-17T05:33:05.932Z,23.73
2023-04-17T05:35:35.037Z,22.37
2023-04-17T05:38:04.950Z,23.87
2023-04-17T05:40:34.941Z,23.00
2023-04-17T05:43:08.662Z,24.97
2023-04-17T05:45:37.543Z,22.37
2023-04-17T05:48:06.333Z,22.63
2023-04-17T05:50:35.150Z,21.67
2023-04-17T05:53:03.690Z,22.53
2023-04-17T05:55:32.159Z,22.60
2023-04-17T05:58:10.417Z,23.00
2023-04-17T06:00:51.092Z,22.37
2023-04-17T06:03:19.916Z,24.43
2023-04-17T06:05:48.805Z,22.63
2023-04-17T06:08:17.568Z,22.13
2023-04-17T06:10:46.854Z,21.83
2023-04-17T06:13:16.975Z,22.47
2023-04-17T06:15:45.472Z,21.27
2023-04-17T06:18:16.335Z,21.47
2023-04-17T06:20:44.972Z,20.87
2023-04-17T06:23:13.555Z,21.30
2023-04-17T06:25:42.411Z,21.20
2023-04-17T06:28:10.899Z,20.80
2023-04-17T06:30:41.133Z,20.07
2023-04-17T06:33:09.623Z,19.70
2023-04-17T06:35:38.080Z,19.60
2023-04-17T06:38:06.558Z,19.03
2023-04-17T06:40:35.137Z,17.80
2023-04-17T06:43:03.666Z,18.93
2023-04-17T06:45:34.376Z,18.77
2023-04-17T06:48:04.328Z,18.80
2023-04-17T06:50:32.952Z,18.43
2023-04-17T06:53:01.522Z,19.03
2023-04-17T06:55:30.284Z,18.50
2023-04-17T06:57:58.907Z,19.00
2023-04-17T07:00:27.639Z,18.40
2023-04-17T07:02:56.460Z,17.37
2023-04-17T07:05:26.507Z,18.10
2023-04-17T07:07:56.228Z,18.03
2023-04-17T07:10:24.803Z,17.20
2023-04-17T07:12:53.310Z,17.83
2023-04-17T07:15:21.973Z,18.07
2023-04-17T07:17:50.605Z,18.47
2023-04-17T07:20:19.208Z,18.07
2023-04-17T07:22:50.099Z,17.73
2023-04-17T07:25:20.119Z,17.13
2023-04-17T07:27:48.788Z,16.67
2023-04-17T07:30:17.329Z,15.37
2023-04-17T07:32:45.921Z,15.17
2023-04-17T07:35:14.403Z,15.87
2023-04-17T07:37:42.837Z,15.53
2023-04-17T07:40:13.852Z,14.53
2023-04-17T07:42:42.234Z,14.73
2023-04-17T07:45:11.655Z,16.30
2023-04-17T07:47:40.235Z,15.80
2023-04-17T07:50:09.748Z,15.17
2023-04-17T07:52:38.304Z,14.90
2023-04-17T07:55:07.587Z,14.60
2023-04-17T07:57:37.557Z,15.50
2023-04-17T08:00:09.415Z,15.43
2023-04-17T08:02:38.318Z,14.80
2023-04-17T08:05:08.223Z,14.93
2023-04-17T08:07:36.936Z,14.80
2023-04-17T08:10:06.187Z,15.07
2023-04-17T08:12:34.912Z,15.47
2023-04-17T08:15:05.230Z,15.00
2023-04-17T08:17:33.978Z,15.30
2023-04-17T08:20:11.329Z,14.10
2023-04-17T08:22:44.012Z,14.90
2023-04-17T08:25:13.062Z,13.67
2023-04-17T08:27:43.165Z,14.13
2023-04-17T08:30:16.916Z,14.73
2023-04-17T08:32:48.641Z,15.33
2023-04-17T08:35:17.814Z,14.33
2023-04-17T08:37:47.905Z,14.27
2023-04-17T08:40:17.488Z,15.13
2023-04-17T08:42:48.156Z,15.27
2023-04-17T08:45:18.570Z,13.60
2023-04-17T08:47:47.109Z,14.60
2023-04-17T08:50:17.969Z,15.87
2023-04-17T08:52:48.376Z,15.97
2023-04-17T08:55:18.386Z,16.33
2023-04-17T08:57:57.618Z,16.13
2023-04-17T09:00:28.786Z,16.43
2023-04-17T09:02:59.158Z,16.00
2023-04-17T09:05:30.665Z,15.23
2023-04-17T09:08:14.622Z,17.17
2023-04-17T09:10:45.240Z,15.00
2023-04-17T09:13:16.100Z,15.20
2023-04-17T09:15:47.941Z,16.93
2023-04-17T09:18:25.178Z,16.10
2023-04-17T09:20:53.734Z,16.97
2023-04-17T09:23:22.964Z,17.70
2023-04-17T09:26:08.076Z,16.03
2023-04-17T09:28:37.098Z,17.87
2023-04-17T09:31:09.443Z,17.83
2023-04-17T09:33:57.334Z,18.97
2023-04-17T09:36:27.015Z,18.53
2023-04-17T09:38:56.188Z,19.00
2023-04-17T09:41:25.656Z,18.43
2023-04-17T09:43:55.148Z,18.53
2023-04-17T09:46:39.252Z,18.33
2023-04-17T09:49:12.331Z,18.33
2023-04-17T09:51:41.434Z,18.73
2023-04-17T09:54:12.652Z,17.80
2023-04-17T09:56:42.080Z,17.23
2023-04-17T09:59:11.309Z,17.47
2023-04-17T10:01:41.355Z,17.20
2023-04-17T10:04:10.434Z,15.77
2023-04-17T10:06:40.074Z,15.80
2023-04-17T10:09:09.399Z,15.50
2023-04-17T10:11:42.222Z,17.00
2023-04-17T10:14:15.364Z,13.83
2023-04-17T10:16:45.389Z,15.00
2023-04-17T10:19:28.200Z,14.33
2023-04-17T10:22:31.507Z,14.10
2023-04-17T10:25:18.913Z,13.17
2023-04-17T10:27:50.827Z,14.43
2023-04-17T10:30:22.031Z,14.90
2023-04-17T10:33:24.972Z,13.40
2023-04-17T10:35:54.362Z,13.27
2023-04-17T10:38:37.944Z,12.73
2023-04-17T10:41:11.535Z,12.87
2023-04-17T10:43:45.764Z,12.37
2023-04-17T10:46:15.537Z,13.40
2023-04-17T10:48:52.530Z,12.13
2023-04-17T10:51:43.758Z,13.00
2023-04-17T10:54:15.792Z,11.63
2023-04-17T10:56:46.629Z,11.80
2023-04-17T10:59:16.798Z,12.20
2023-04-17T11:02:04.816Z,11.30
2023-04-17T11:04:35.302Z,10.47
2023-04-17T11:07:03.793Z,12.00
2023-04-17T11:09:32.357Z,11.40
2023-04-17T11:12:02.154Z,10.93
2023-04-17T11:14:31.103Z,11.03
2023-04-17T11:16:59.756Z,10.47
2023-04-17T11:19:28.549Z,10.97
2023-04-17T11:21:58.997Z,11.27
2023-04-17T11:24:28.711Z,11.00
2023-04-17T11:26:59.928Z,10.73
2023-04-17T11:29:29.368Z,10.80
2023-04-17T11:31:59.393Z,10.40
2023-04-17T11:34:28.444Z,10.60
2023-04-17T11:36:59.807Z,10.83
2023-04-17T11:39:30.935Z,11.23
2023-04-17T11:41:59.648Z,10.63
2023-04-17T11:44:28.125Z,11.17
2023-04-17T11:46:59.698Z,10.83
2023-04-17T11:49:28.886Z,10.83
2023-04-17T11:52:02.026Z,9.70
2023-04-17T11:54:31.837Z,10.00
2023-04-17T11:57:01.882Z,10.37
2023-04-17T11:59:34.562Z,10.10
2023-04-17T12:02:03.965Z,10.50
2023-04-17T12:04:34.987Z,9.47
2023-04-17T12:07:08.220Z,9.30
2023-04-17T12:09:37.229Z,9.97
2023-04-17T12:12:07.900Z,10.23
2023-04-17T12:14:36.767Z,9.20
2023-04-17T12:17:06.125Z,9.33
2023-04-17T12:19:34.794Z,10.00
2023-04-17T12:22:03.413Z,8.90
2023-04-17T12:24:33.323Z,10.27
2023-04-17T12:27:02.189Z,10.17
2023-04-17T12:29:43.118Z,9.00
2023-04-17T12:32:13.013Z,9.80
2023-04-17T12:34:41.584Z,10.00
2023-04-17T12:37:10.641Z,8.70
2023-04-17T12:39:40.595Z,9.53
2023-04-17T12:42:09.230Z,9.90
2023-04-17T12:44:41.172Z,9.50
2023-04-17T12:47:10.139Z,9.47
2023-04-17T12:49:38.927Z,8.30
2023-04-17T12:52:07.417Z,9.27
2023-04-17T12:54:36.219Z,8.90
2023-04-17T12:57:06.699Z,8.83
2023-04-17T12:59:37.443Z,8.67
2023-04-17T13:02:06.307Z,8.30
2023-04-17T13:04:34.974Z,7.70
2023-04-17T13:07:03.821Z,8.43
2023-04-17T13:09:32.414Z,7.93
2023-04-17T13:12:01.738Z,8.50
2023-04-17T13:14:31.819Z,8.40
2023-04-17T13:17:00.477Z,7.97
2023-04-17T13:19:29.054Z,8.67
2023-04-17T13:21:57.509Z,8.27
2023-04-17T13:24:26.300Z,8.40
2023-04-17T13:26:55.641Z,8.27
2023-04-17T13:29:24.165Z,7.93
2023-04-17T13:31:54.116Z,8.13
2023-04-17T13:34:22.589Z,8.57
2023-04-17T13:36:51.307Z,8.50
2023-04-17T13:39:19.866Z,8.50
2023-04-17T13:41:48.660Z,8.03
2023-04-17T13:44:17.857Z,8.33
2023-04-17T13:46:47.925Z,7.27
2023-04-17T13:49:18.347Z,7.57
2023-04-17T13:51:46.915Z,7.27
2023-04-17T13:54:15.727Z,7.10
2023-04-17T13:56:45.693Z,6.63
2023-04-17T13:59:14.438Z,7.47
2023-04-17T14:01:43.232Z,7.00
2023-04-17T14:04:11.957Z,8.47
2023-04-17T14:06:43.959Z,7.77
2023-04-17T14:09:12.873Z,9.10
2023-04-17T14:11:42.140Z,9.33
2023-04-17T14:14:12.942Z,7.93
2023-04-17T14:16:42.088Z,11.53
2023-04-17T14:19:14.084Z,8.20
2023-04-17T14:21:45.087Z,8.10
2023-04-17T14:24:13.580Z,7.93
2023-04-17T14:26:42.361Z,7.93
2023-04-17T14:29:14.263Z,7.33
2023-04-17T14:31:43.081Z,7.73
2023-04-17T14:34:11.679Z,7.60
2023-04-17T14:36:40.705Z,7.63
2023-04-17T14:39:12.031Z,7.73
2023-04-17T14:41:41.138Z,6.60
2023-04-17T14:44:09.898Z,7.10
2023-04-17T14:46:38.624Z,7.03
2023-04-17T14:49:07.166Z,7.30
2023-04-17T14:51:35.779Z,7.00
2023-04-17T14:54:04.357Z,6.70
2023-04-17T14:56:34.335Z,7.03
2023-04-17T14:59:02.986Z,7.30
2023-04-17T15:01:31.612Z,6.93
2023-04-17T15:04:00.474Z,6.30
2023-04-17T15:06:29.210Z,6.10
2023-04-17T15:09:00.616Z,6.37
2023-04-17T15:11:29.217Z,5.70
2023-04-17T15:13:59.136Z,6.37
2023-04-17T15:16:28.065Z,5.60
2023-04-17T15:18:56.609Z,5.77
2023-04-17T15:21:25.086Z,5.90
2023-04-17T15:23:53.670Z,5.53
2023-04-17T15:26:22.163Z,5.80
2023-04-17T15:28:50.762Z,5.73
2023-04-17T15:31:20.877Z,6.17
2023-04-17T15:33:49.664Z,5.30
2023-04-17T15:36:18.666Z,6.33
2023-04-17T15:38:47.254Z,5.93
2023-04-17T15:41:15.686Z,6.07
2023-04-17T15:43:44.126Z,6.47
2023-04-17T15:46:15.742Z,6.70
2023-04-17T15:48:57.713Z,7.23
2023-04-17T15:51:35.623Z,6.63
2023-04-17T15:54:04.367Z,7.10
2023-04-17T15:56:32.855Z,7.27
2023-04-17T15:59:01.970Z,6.77
2023-04-17T16:01:32.249Z,7.00
2023-04-17T16:04:02.557Z,7.67
2023-04-17T16:06:32.168Z,8.03
2023-04-17T16:09:01.020Z,7.90
2023-04-17T16:11:29.551Z,8.03
2023-04-17T16:13:58.510Z,21.83
2023-04-17T16:16:29.502Z,29.50
2023-04-17T16:18:58.768Z,33.47
2023-04-17T16:21:29.387Z,23.33
2023-04-17T16:23:58.919Z,17.43
2023-04-17T16:26:27.821Z,27.93
2023-04-17T16:28:56.685Z,52.63
2023-04-17T16:31:26.181Z,28.03
2023-04-17T16:33:54.984Z,18.43
2023-04-17T16:36:23.841Z,28.17
2023-04-17T16:38:54.675Z,15.83
2023-04-17T16:41:23.642Z,11.97
2023-04-17T16:43:52.101Z,17.43
2023-04-17T16:46:28.621Z,15.40
2023-04-17T16:49:10.655Z,30.80
2023-04-17T16:51:39.667Z,23.47
2023-04-17T16:54:09.696Z,19.97
2023-04-17T16:56:38.214Z,19.00
2023-04-17T16:59:06.763Z,19.33
2023-04-17T17:01:35.669Z,25.23
2023-04-17T17:04:04.347Z,7.40
2023-04-17T17:06:33.070Z,6.70
2023-04-17T17:09:02.497Z,6.77
2023-04-17T17:11:32.432Z,7.17
2023-04-17T17:14:01.296Z,6.50
2023-04-17T17:16:29.927Z,6.80
2023-04-17T17:18:58.873Z,6.93
2023-04-17T17:21:28.508Z,8.73
2023-04-17T17:23:57.193Z,8.67
2023-04-17T17:26:25.781Z,9.70
2023-04-17T17:28:57.069Z,8.17
2023-04-17T17:31:25.600Z,9.33
2023-04-17T17:33:55.525Z,9.10
2023-04-17T17:36:24.559Z,9.50
2023-04-17T17:38:56.044Z,9.80
2023-04-17T17:41:24.880Z,11.27
2023-04-17T17:43:56.287Z,10.60
2023-04-17T17:46:29.041Z,9.83
2023-04-17T17:48:57.831Z,12.20
2023-04-17T17:51:27.222Z,15.47
2023-04-17T17:53:56.005Z,11.30
2023-04-17T17:56:24.936Z,9.83
2023-04-17T17:58:53.587Z,8.97
2023-04-17T18:01:23.758Z,9.43
2023-04-17T18:03:54.394Z,10.70
2023-04-17T18:06:23.137Z,10.20
2023-04-17T18:08:53.148Z,11.40
2023-04-17T18:11:21.852Z,10.40
2023-04-17T18:13:50.321Z,17.07
2023-04-17T18:16:19.214Z,10.73
2023-04-17T18:18:47.771Z,8.40
2023-04-17T18:21:17.974Z,9.73
2023-04-17T18:23:46.487Z,85.50
2023-04-17T18:26:15.064Z,100.77
2023-04-17T18:28:43.517Z,50.83
2023-04-17T18:31:12.764Z,248.50
2023-04-17T18:33:41.422Z,336.70
2023-04-17T18:36:13.188Z,252.07
2023-04-17T18:38:43.302Z,318.33
2023-04-17T18:41:11.874Z,118.40
2023-04-17T18:43:40.491Z,93.37
2023-04-17T18:46:27.371Z,98.03
2023-04-17T18:48:55.955Z,33.63
2023-04-17T18:51:24.612Z,17.13
2023-04-17T18:53:54.695Z,14.87
2023-04-17T18:56:24.344Z,14.07
2023-04-17T18:58:55.637Z,13.97
2023-04-17T19:01:24.341Z,12.70
2023-04-17T19:03:53.244Z,12.47
2023-04-17T19:06:22.251Z,11.37
2023-04-17T19:08:51.852Z,17.53
2023-04-17T19:11:22.285Z,13.70
2023-04-17T19:13:50.977Z,11.80
2023-04-17T19:16:19.982Z,10.63
2023-04-17T19:18:48.779Z,10.40
2023-04-17T19:21:17.578Z,10.07
2023-04-17T19:23:46.968Z,11.47
2023-04-17T19:26:17.461Z,10.87
2023-04-17T19:28:47.635Z,9.97
2023-04-17T19:31:16.334Z,11.60
2023-04-17T19:33:46.845Z,13.10
2023-04-17T19:36:15.642Z,12.27
2023-04-17T19:38:44.647Z,97.50
2023-04-17T19:41:18.074Z,20.63
2023-04-17T19:43:50.064Z,43.43
2023-04-17T19:46:19.561Z,83.17
2023-04-17T19:48:49.772Z,27.67
2023-04-17T19:51:18.648Z,353.87
2023-04-17T19:53:50.676Z,18.83
2023-04-17T19:56:19.382Z,14.10
2023-04-17T19:58:57.090Z,14.00
2023-04-17T20:01:25.721Z,17.20
2023-04-17T20:03:54.500Z,14.33
2023-04-17T20:06:23.272Z,36.27
2023-04-17T20:08:51.831Z,32.57
2023-04-17T20:11:20.814Z,14.23
2023-04-17T20:13:51.962Z,14.33
2023-04-17T20:16:22.234Z,12.67
2023-04-17T20:18:52.411Z,12.53
2023-04-17T20:21:20.896Z,13.77
2023-04-17T20:23:49.643Z,14.13
2023-04-17T20:26:18.571Z,14.03
2023-04-17T20:28:47.890Z,35.37
2023-04-17T20:31:18.417Z,94.07
2023-04-17T20:33:47.382Z,98.87
2023-04-17T20:36:17.489Z,97.83
2023-04-17T20:38:46.547Z,141.90
2023-04-17T20:41:16.867Z,21.77
2023-04-17T20:43:45.365Z,120.70
2023-04-17T20:46:14.032Z,79.53
2023-04-17T20:48:44.019Z,85.97
2023-04-17T20:51:12.828Z,22.17
2023-04-17T20:53:41.659Z,15.53
2023-04-17T20:56:10.476Z,13.07
2023-04-17T20:58:38.957Z,13.17
2023-04-17T21:01:07.581Z,22.43
2023-04-17T21:03:36.300Z,33.40
2023-04-17T21:06:06.810Z,25.10
2023-04-17T21:08:35.468Z,20.20
2023-04-17T21:11:03.966Z,22.80
2023-04-17T21:13:32.740Z,22.43
2023-04-17T21:16:01.353Z,21.17
2023-04-17T21:18:29.958Z,18.80
2023-04-17T21:20:58.595Z,17.90
2023-04-17T21:23:28.570Z,17.40
2023-04-17T21:25:57.453Z,17.77
2023-04-17T21:28:26.097Z,17.07
2023-04-17T21:30:55.348Z,16.40
2023-04-17T21:33:23.864Z,19.83
2023-04-17T21:35:52.451Z,19.63
2023-04-17T21:38:21.004Z,16.53
2023-04-17T21:40:52.239Z,16.90
2023-04-17T21:43:20.799Z,17.40
2023-04-17T21:45:50.303Z,22.50
2023-04-17T21:48:18.998Z,19.70
2023-04-17T21:50:47.389Z,20.43
2023-04-17T21:53:15.836Z,29.70
2023-04-17T21:55:44.358Z,44.13
2023-04-17T21:58:14.297Z,23.33
2023-04-17T22:00:43.760Z,17.90
2023-04-17T22:03:12.424Z,24.53
2023-04-17T22:05:42.455Z,27.00
2023-04-17T22:08:11.267Z,19.73
2023-04-17T22:10:39.803Z,16.90
2023-04-17T22:13:08.381Z,14.93
2023-04-17T22:15:38.656Z,16.33
2023-04-17T22:18:07.534Z,15.17
2023-04-17T22:21:30.469Z,13.37
2023-04-17T22:24:53.630Z,13.70
2023-04-17T22:28:16.534Z,13.73
2023-04-17T22:31:39.865Z,15.03
2023-04-17T22:35:02.950Z,14.23
2023-04-17T22:38:26.282Z,13.70
2023-04-17T22:41:48.924Z,12.90
2023-04-17T22:45:12.101Z,13.87
2023-04-17T22:48:35.191Z,13.17
2023-04-17T22:51:58.429Z,14.27
2023-04-17T22:55:21.596Z,13.27
2023-04-17T22:58:44.773Z,14.20
2023-04-17T23:02:08.277Z,13.43
2023-04-17T23:05:31.392Z,15.40
2023-04-17T23:08:54.089Z,18.00
2023-04-17T23:11:23.986Z,14.23
2023-04-17T23:13:52.782Z,14.10
2023-04-17T23:16:21.353Z,13.90
2023-04-17T23:18:49.875Z,13.67
2023-04-17T23:21:18.565Z,13.63
2023-04-17T23:23:48.309Z,13.77
2023-04-17T23:26:17.232Z,15.10
2023-04-17T23:28:47.119Z,15.20
2023-04-17T23:31:15.672Z,14.40
2023-04-17T23:33:44.084Z,16.60
2023-04-17T23:36:13.438Z,15.57
2023-04-17T23:38:41.907Z,15.43
2023-04-17T23:41:11.084Z,16.47
2023-04-17T23:43:39.504Z,16.13
2023-04-17T23:46:10.294Z,17.57
2023-04-17T23:48:38.913Z,19.90
2023-04-17T23:51:07.411Z,17.83
2023-04-17T23:53:35.952Z,18.00
2023-04-17T23:56:04.427Z,17.67
2023-04-17T23:58:32.874Z,17.53
